createdAt,value
2023-03-29T00:01:35.699Z,-2.52
2023-03-29T00:04:21.128Z,-2.58
2023-03-29T00:07:06.616Z,-2.60
2023-03-29T00:09:51.685Z,-2.59
2023-03-29T00:12:37.317Z,-2.63
2023-03-29T00:15:22.153Z,-2.62
2023-03-29T00:18:07.304Z,-2.64
2023-03-29T00:20:57.206Z,-2.67
2023-03-29T00:23:41.962Z,-2.75
2023-03-29T00:26:26.646Z,-2.75
2023-03-29T00:29:11.641Z,-2.79
2023-03-29T00:31:56.776Z,-2.81
2023-03-29T00:34:42.112Z,-2.75
2023-03-29T00:37:29.348Z,-2.72
2023-03-29T00:40:14.741Z,-2.68
2023-03-29T00:43:00.017Z,-2.64
2023-03-29T00:45:44.869Z,-2.65
2023-03-29T00:48:30.781Z,-2.61
2023-03-29T00:51:18.426Z,-2.58
2023-03-29T00:54:07.392Z,-2.56
2023-03-29T00:56:52.438Z,-2.56
2023-03-29T00:59:38.587Z,-2.51
2023-03-29T01:02:26.847Z,-2.48
2023-03-29T01:05:19.481Z,-2.50
2023-03-29T01:08:25.142Z,-2.49
2023-03-29T01:11:14.373Z,-2.44
2023-03-29T01:14:11.613Z,-2.48
2023-03-29T01:16:56.875Z,-2.53
2023-03-29T01:19:51.248Z,-2.54
2023-03-29T01:22:38.144Z,-2.55
2023-03-29T01:25:45.252Z,-2.57
2023-03-29T01:28:37.420Z,-2.61
2023-03-29T01:31:32.193Z,-2.59
2023-03-29T01:34:27.552Z,-2.61
2023-03-29T01:37:23.968Z,-2.61
2023-03-29T01:40:09.584Z,-2.63
2023-03-29T01:43:10.990Z,-2.59
2023-03-29T01:46:21.001Z,-2.60
2023-03-29T01:49:20.506Z,-2.62
2023-03-29T01:52:24.465Z,-2.63
2023-03-29T01:55:17.830Z,-2.64
2023-03-29T01:58:06.070Z,-2.67
2023-03-29T02:00:55.778Z,-2.68
2023-03-29T02:03:46.579Z,-2.66
2023-03-29T02:06:33.424Z,-2.66
2023-03-29T02:09:19.193Z,-2.72
2023-03-29T02:12:07.827Z,-2.76
2023-03-29T02:14:52.638Z,-2.82
2023-03-29T02:17:37.644Z,-2.80
2023-03-29T02:20:30.236Z,-2.80
2023-03-29T02:23:20.861Z,-2.79
2023-03-29T02:26:06.084Z,-2.81
2023-03-29T02:28:52.264Z,-2.75
2023-03-29T02:31:55.881Z,-2.76
2023-03-29T02:34:58.447Z,-2.78
2023-03-29T02:37:48.872Z,-2.77
2023-03-29T02:40:36.994Z,-2.78
2023-03-29T02:43:26.027Z,-2.77
2023-03-29T02:46:11.992Z,-2.82
2023-03-29T02:48:58.367Z,-2.84
2023-03-29T02:51:46.647Z,-2.91
2023-03-29T02:54:32.422Z,-2.96
2023-03-29T02:57:17.567Z,-2.98
2023-03-29T03:00:04.665Z,-2.97
2023-03-29T03:02:50.470Z,-2.92
2023-03-29T03:05:35.608Z,-2.86
2023-03-29T03:08:20.725Z,-2.87
2023-03-29T03:11:06.461Z,-2.87
2023-03-29T03:13:51.386Z,-2.88
2023-03-29T03:16:36.509Z,-2.92
2023-03-29T03:19:21.615Z,-2.90
2023-03-29T03:22:09.295Z,-2.88
2023-03-29T03:24:55.488Z,-2.89
2023-03-29T03:27:40.649Z,-2.85
2023-03-29T03:30:25.413Z,-2.88
2023-03-29T03:33:29.745Z,-2.91
2023-03-29T03:36:43.677Z,-2.94
2023-03-29T03:39:29.738Z,-2.99
2023-03-29T03:42:14.764Z,-2.97
2023-03-29T03:45:01.193Z,-3.00
2023-03-29T03:48:05.266Z,-3.03
2023-03-29T03:51:02.872Z,-3.13
2023-03-29T03:53:51.104Z,-3.12
2023-03-29T03:56:55.790Z,-3.01
2023-03-29T03:59:52.337Z,-2.99
2023-03-29T04:02:47.583Z,-2.98
2023-03-29T04:05:32.579Z,-2.97
2023-03-29T04:08:17.443Z,-2.97
2023-03-29T04:11:25.326Z,-2.97
2023-03-29T04:14:10.693Z,-2.99
2023-03-29T04:17:18.157Z,-2.98
2023-03-29T04:20:30.300Z,-2.92
2023-03-29T04:23:17.722Z,-2.93
2023-03-29T04:26:03.666Z,-2.89
2023-03-29T04:29:00.751Z,-2.86
2023-03-29T04:31:55.836Z,-2.79
2023-03-29T04:35:00.996Z,-2.73
2023-03-29T04:37:45.891Z,-2.72
2023-03-29T04:40:33.605Z,-2.72
2023-03-29T04:43:30.477Z,-2.66
2023-03-29T04:46:42.332Z,-2.65
2023-03-29T04:49:27.334Z,-2.58
2023-03-29T04:52:13.992Z,-2.60
2023-03-29T04:55:09.963Z,-2.51
2023-03-29T04:58:23.695Z,-2.55
2023-03-29T05:01:10.871Z,-2.43
2023-03-29T05:04:01.893Z,-2.45
2023-03-29T05:06:53.342Z,-2.31
2023-03-29T05:09:38.478Z,-2.33
2023-03-29T05:12:24.072Z,-2.28
2023-03-29T05:15:10.810Z,-2.26
2023-03-29T05:17:55.536Z,-2.25
2023-03-29T05:20:41.531Z,-2.25
2023-03-29T05:23:28.276Z,-2.22
2023-03-29T05:26:25.872Z,-2.18
2023-03-29T05:29:12.041Z,-2.20
2023-03-29T05:32:03.613Z,-2.16
2023-03-29T05:34:52.716Z,-2.12
2023-03-29T05:37:40.580Z,-2.04
2023-03-29T05:40:25.827Z,-1.90
2023-03-29T05:43:31.129Z,-1.95
2023-03-29T05:46:17.745Z,-1.93
2023-03-29T05:49:11.563Z,-1.89
2023-03-29T05:52:19.512Z,-1.79
2023-03-29T05:55:05.172Z,-1.81
2023-03-29T05:57:50.292Z,-1.85
2023-03-29T06:00:39.095Z,-1.83
2023-03-29T06:03:43.578Z,-1.88
2023-03-29T06:06:30.920Z,-1.76
2023-03-29T06:09:16.890Z,-1.83
2023-03-29T06:12:22.231Z,-1.80
2023-03-29T06:15:15.575Z,-1.79
2023-03-29T06:18:09.491Z,-1.77
2023-03-29T06:20:55.553Z,-1.71
2023-03-29T06:23:44.674Z,-1.70
2023-03-29T06:26:29.999Z,-1.75
2023-03-29T06:29:15.055Z,-1.67
2023-03-29T06:32:01.579Z,-1.53
2023-03-29T06:35:04.407Z,-1.46
2023-03-29T06:37:57.724Z,-1.57
2023-03-29T06:41:10.800Z,-1.63
2023-03-29T06:44:18.341Z,-1.43
2023-03-29T06:47:17.660Z,-1.30
2023-03-29T06:50:03.404Z,-1.46
2023-03-29T06:53:02.849Z,-1.38
2023-03-29T06:55:51.334Z,-1.26
2023-03-29T06:59:02.952Z,-1.18
2023-03-29T07:01:57.023Z,-1.02
2023-03-29T07:08:20.426Z,-0.94
2023-03-29T07:11:13.641Z,-1.05
2023-03-29T07:14:13.853Z,-0.89
2023-03-29T07:17:01.804Z,-0.91
2023-03-29T07:19:57.329Z,-0.98
2023-03-29T07:23:09.083Z,-0.95
2023-03-29T07:25:54.282Z,-1.00
2023-03-29T07:28:42.990Z,-1.00
2023-03-29T07:31:40.298Z,-0.87
2023-03-29T07:34:47.378Z,-0.89
2023-03-29T07:37:42.323Z,-0.95
2023-03-29T07:40:30.722Z,-1.13
2023-03-29T07:43:15.558Z,-1.18
2023-03-29T07:46:03.333Z,-0.82
2023-03-29T07:48:50.264Z,-0.72
2023-03-29T07:51:36.014Z,-0.64
2023-03-29T07:54:25.640Z,-0.33
2023-03-29T07:57:16.141Z,0.03
2023-03-29T08:00:12.179Z,-0.17
2023-03-29T08:02:58.302Z,-0.04
2023-03-29T08:05:44.601Z,0.27
2023-03-29T08:08:33.036Z,0.14
2023-03-29T08:11:24.567Z,-0.04
2023-03-29T08:14:57.608Z,0.26
2023-03-29T08:17:48.155Z,0.66
2023-03-29T08:20:33.519Z,0.56
2023-03-29T08:23:21.289Z,0.23
2023-03-29T08:26:25.257Z,0.52
2023-03-29T08:29:11.089Z,0.74
2023-03-29T08:31:57.681Z,0.45
2023-03-29T08:34:43.249Z,0.39
2023-03-29T08:37:38.881Z,0.53
2023-03-29T08:40:29.886Z,0.75
2023-03-29T08:43:17.466Z,0.56
2023-03-29T08:46:34.583Z,0.90
2023-03-29T08:49:31.182Z,0.96
2023-03-29T08:52:30.484Z,0.92
2023-03-29T08:55:39.962Z,0.84
2023-03-29T08:58:40.019Z,1.13
2023-03-29T09:01:31.207Z,0.93
2023-03-29T09:04:19.661Z,0.85
2023-03-29T09:07:12.454Z,1.32
2023-03-29T09:10:06.542Z,0.83
2023-03-29T09:13:14.983Z,0.20
2023-03-29T09:16:21.020Z,-0.08
2023-03-29T09:19:32.135Z,-0.10
2023-03-29T09:22:57.061Z,-0.31
2023-03-29T09:26:14.178Z,-0.04
2023-03-29T09:29:41.470Z,0.48
2023-03-29T09:32:38.801Z,0.42
2023-03-29T09:35:37.146Z,0.65
2023-03-29T09:38:22.932Z,0.64
2023-03-29T09:41:27.168Z,0.56
2023-03-29T09:44:30.790Z,0.39
2023-03-29T09:47:26.588Z,-0.18
2023-03-29T09:50:45.495Z,-0.09
2023-03-29T09:53:31.738Z,-0.16
2023-03-29T09:56:31.735Z,-0.19
2023-03-29T09:59:26.891Z,-0.44
2023-03-29T10:02:13.239Z,-0.74
2023-03-29T10:05:03.428Z,-0.81
2023-03-29T10:07:53.766Z,-0.67
2023-03-29T10:10:38.504Z,-0.39
2023-03-29T10:13:30.989Z,-0.05
2023-03-29T10:16:22.076Z,0.14
2023-03-29T10:19:24.240Z,0.67
2023-03-29T10:22:31.401Z,0.86
2023-03-29T10:25:17.775Z,0.92
2023-03-29T10:31:20.194Z,1.20
2023-03-29T10:34:06.502Z,1.42
2023-03-29T10:36:58.574Z,1.88
2023-03-29T10:39:48.363Z,1.46
2023-03-29T10:42:54.264Z,0.99
2023-03-29T10:45:39.267Z,0.74
2023-03-29T10:48:35.613Z,0.65
2023-03-29T10:51:24.464Z,0.28
2023-03-29T10:54:13.964Z,0.11
2023-03-29T10:57:06.471Z,0.59
2023-03-29T10:59:57.209Z,0.95
2023-03-29T11:03:07.921Z,1.12
2023-03-29T11:06:04.135Z,1.52
2023-03-29T11:09:02.531Z,1.61
2023-03-29T11:12:15.656Z,1.47
2023-03-29T11:15:52.789Z,1.38
2023-03-29T11:19:22.180Z,0.92
2023-03-29T11:22:49.718Z,0.60
2023-03-29T11:25:48.584Z,0.32
2023-03-29T11:28:49.390Z,-0.28
2023-03-29T11:31:56.955Z,-0.50
2023-03-29T11:34:57.147Z,-0.34
2023-03-29T11:37:59.824Z,-0.27
2023-03-29T11:41:10.712Z,-0.14
2023-03-29T11:44:05.586Z,-0.08
2023-03-29T11:47:06.839Z,0.34
2023-03-29T11:49:58.649Z,0.73
2023-03-29T11:52:52.848Z,0.88
2023-03-29T11:55:41.992Z,0.68
2023-03-29T11:58:34.923Z,0.82
2023-03-29T12:01:36.933Z,0.83
2023-03-29T12:04:33.467Z,1.05
2023-03-29T12:07:36.576Z,0.96
2023-03-29T12:10:34.118Z,0.86
2023-03-29T12:13:24.011Z,0.88
2023-03-29T12:16:47.753Z,0.66
2023-03-29T12:19:43.963Z,0.69
2023-03-29T12:22:29.076Z,1.10
2023-03-29T12:25:19.698Z,1.56
2023-03-29T12:28:36.023Z,1.45
2023-03-29T12:31:39.366Z,1.54
2023-03-29T12:34:24.535Z,1.46
2023-03-29T12:37:35.755Z,1.37
2023-03-29T12:40:43.411Z,1.12
2023-03-29T12:44:03.429Z,0.57
2023-03-29T12:47:20.892Z,0.69
2023-03-29T12:50:06.473Z,0.78
2023-03-29T12:52:51.402Z,0.59
2023-03-29T12:55:42.040Z,0.63
2023-03-29T12:58:42.406Z,0.31
2023-03-29T13:01:28.680Z,0.23
2023-03-29T13:04:21.944Z,0.06
2023-03-29T13:07:14.408Z,-0.16
2023-03-29T13:10:08.336Z,0.01
2023-03-29T13:12:54.077Z,0.00
2023-03-29T13:15:39.314Z,0.04
2023-03-29T13:19:02.118Z,0.02
2023-03-29T13:21:58.501Z,0.39
2023-03-29T13:25:18.479Z,0.76
2023-03-29T13:28:18.629Z,1.27
2023-03-29T13:31:49.738Z,1.28
2023-03-29T13:34:49.896Z,1.42
2023-03-29T13:37:52.538Z,2.02
2023-03-29T13:40:40.852Z,2.04
2023-03-29T13:43:40.720Z,1.62
2023-03-29T13:46:41.922Z,1.62
2023-03-29T13:49:30.405Z,1.73
2023-03-29T13:52:23.676Z,1.99
2023-03-29T13:55:21.049Z,1.92
2023-03-29T13:58:09.569Z,2.06
2023-03-29T14:01:00.688Z,1.98
2023-03-29T14:03:48.878Z,1.82
2023-03-29T14:06:36.747Z,1.60
2023-03-29T14:09:30.862Z,1.38
2023-03-29T14:12:16.975Z,1.10
2023-03-29T14:15:05.426Z,1.01
2023-03-29T14:17:54.872Z,0.97
2023-03-29T14:20:43.346Z,0.94
2023-03-29T14:23:30.329Z,0.96
2023-03-29T14:26:21.177Z,1.10
2023-03-29T14:29:09.981Z,1.13
2023-03-29T14:31:54.734Z,1.17
2023-03-29T14:34:40.047Z,1.11
2023-03-29T14:37:27.643Z,1.16
2023-03-29T14:40:19.331Z,1.06
2023-03-29T14:43:07.336Z,1.13
2023-03-29T14:45:52.516Z,1.15
2023-03-29T14:48:38.228Z,1.00
2023-03-29T14:51:28.103Z,1.21
2023-03-29T14:54:26.569Z,1.26
2023-03-29T14:57:17.773Z,1.24
2023-03-29T15:00:14.194Z,1.30
2023-03-29T15:03:01.448Z,1.44
2023-03-29T15:06:06.670Z,1.43
2023-03-29T15:09:02.062Z,1.38
2023-03-29T15:11:53.442Z,1.30
2023-03-29T15:14:38.437Z,1.33
2023-03-29T15:17:47.661Z,1.26
2023-03-29T15:20:38.232Z,1.26
2023-03-29T15:23:25.644Z,1.30
2023-03-29T15:26:20.990Z,1.15
2023-03-29T15:29:22.581Z,1.17
2023-03-29T15:32:09.562Z,1.33
2023-03-29T15:35:04.359Z,1.52
2023-03-29T15:37:51.389Z,1.57
2023-03-29T15:40:36.247Z,1.52
2023-03-29T15:43:22.127Z,1.56
2023-03-29T15:46:06.933Z,1.54
2023-03-29T15:48:51.534Z,1.94
2023-03-29T15:51:36.361Z,2.51
2023-03-29T15:54:21.937Z,2.71
2023-03-29T15:57:11.839Z,2.58
2023-03-29T15:59:57.135Z,2.40
2023-03-29T16:02:42.480Z,2.12
2023-03-29T16:05:27.729Z,1.68
2023-03-29T16:08:13.271Z,1.33
2023-03-29T16:10:58.415Z,1.09
2023-03-29T16:13:43.487Z,0.92
2023-03-29T16:16:28.489Z,0.81
2023-03-29T16:19:13.511Z,0.70
2023-03-29T16:21:59.904Z,0.63
2023-03-29T16:24:44.958Z,0.59
2023-03-29T16:27:30.617Z,0.81
2023-03-29T16:30:15.978Z,0.96
2023-03-29T16:33:05.573Z,0.96
2023-03-29T16:35:51.106Z,0.76
2023-03-29T16:38:35.680Z,0.52
2023-03-29T16:41:20.880Z,0.32
2023-03-29T16:44:06.490Z,0.21
2023-03-29T16:46:57.151Z,0.09
2023-03-29T16:49:55.193Z,0.02
2023-03-29T16:52:40.448Z,-0.03
2023-03-29T16:55:25.067Z,-0.07
2023-03-29T16:58:09.970Z,-0.11
2023-03-29T17:00:56.337Z,-0.18
2023-03-29T17:03:42.245Z,-0.24
2023-03-29T17:06:27.316Z,-0.34
2023-03-29T17:09:12.133Z,-0.47
2023-03-29T17:11:57.120Z,-0.63
2023-03-29T17:14:42.077Z,-0.75
2023-03-29T17:17:27.429Z,-0.90
2023-03-29T17:20:12.369Z,-1.10
2023-03-29T17:22:57.086Z,-1.33
2023-03-29T17:25:42.940Z,-1.58
2023-03-29T17:28:27.900Z,-1.80
2023-03-29T17:31:12.732Z,-1.97
2023-03-29T17:33:57.738Z,-2.13
2023-03-29T17:36:45.204Z,-2.25
2023-03-29T17:39:30.496Z,-2.34
2023-03-29T17:42:16.744Z,-2.39
2023-03-29T17:45:01.950Z,-2.38
2023-03-29T17:47:46.841Z,-2.43
2023-03-29T17:50:31.610Z,-2.53
2023-03-29T17:53:16.921Z,-2.66
2023-03-29T17:56:01.778Z,-2.70
2023-03-29T17:58:48.352Z,-2.79
2023-03-29T18:01:33.084Z,-2.86
2023-03-29T18:04:17.910Z,-2.97
2023-03-29T18:07:03.231Z,-3.06
2023-03-29T18:09:49.238Z,-3.10
2023-03-29T18:12:34.440Z,-3.14
2023-03-29T18:15:20.254Z,-3.18
2023-03-29T18:18:04.963Z,-3.21
2023-03-29T18:20:49.938Z,-3.24
2023-03-29T18:23:37.997Z,-3.29
2023-03-29T18:26:22.967Z,-3.33
2023-03-29T18:29:09.738Z,-3.39
2023-03-29T18:31:55.067Z,-3.41
2023-03-29T18:34:39.661Z,-3.46
2023-03-29T18:37:24.566Z,-3.48
2023-03-29T18:40:10.010Z,-3.48
2023-03-29T18:42:54.912Z,-3.50
2023-03-29T18:45:40.024Z,-3.54
2023-03-29T18:48:25.433Z,-3.57
2023-03-29T18:51:12.034Z,-3.60
2023-03-29T18:53:57.158Z,-3.66
2023-03-29T18:56:42.786Z,-3.70
2023-03-29T18:59:27.858Z,-3.76
2023-03-29T19:02:13.564Z,-3.82
2023-03-29T19:04:58.225Z,-3.86
2023-03-29T19:07:43.050Z,-3.84
2023-03-29T19:10:27.719Z,-3.86
2023-03-29T19:13:12.686Z,-3.88
2023-03-29T19:15:58.215Z,-3.90
2023-03-29T19:18:43.329Z,-3.92
2023-03-29T19:21:30.930Z,-3.95
2023-03-29T19:24:16.162Z,-3.95
2023-03-29T19:27:01.136Z,-3.95
2023-03-29T19:29:46.465Z,-3.96
2023-03-29T19:32:33.196Z,-3.84
2023-03-29T19:35:18.531Z,-3.77
2023-03-29T19:38:06.761Z,-3.67
2023-03-29T19:40:51.932Z,-3.61
2023-03-29T19:43:39.465Z,-3.50
2023-03-29T19:46:24.787Z,-3.43
2023-03-29T19:49:12.835Z,-3.36
2023-03-29T19:51:57.646Z,-3.45
2023-03-29T19:54:43.556Z,-3.52
2023-03-29T19:57:28.246Z,-3.53
2023-03-29T20:00:18.022Z,-3.45
2023-03-29T20:03:02.710Z,-3.40
2023-03-29T20:05:47.293Z,-3.39
2023-03-29T20:08:32.018Z,-3.50
2023-03-29T20:11:19.205Z,-3.53
2023-03-29T20:14:04.804Z,-3.57
2023-03-29T20:16:50.191Z,-3.57
2023-03-29T20:19:35.905Z,-3.53
2023-03-29T20:22:21.002Z,-3.46
2023-03-29T20:25:06.005Z,-3.40
2023-03-29T20:27:50.979Z,-3.27
2023-03-29T20:30:36.007Z,-3.18
2023-03-29T20:33:21.392Z,-3.06
2023-03-29T20:36:06.292Z,-2.95
2023-03-29T20:38:51.804Z,-2.86
2023-03-29T20:41:37.630Z,-2.88
2023-03-29T20:44:25.680Z,-2.85
2023-03-29T20:47:13.483Z,-2.85
2023-03-29T20:49:58.136Z,-2.69
2023-03-29T20:52:43.045Z,-2.64
2023-03-29T20:55:29.698Z,-2.61
2023-03-29T20:58:15.173Z,-2.61
2023-03-29T21:00:59.780Z,-2.54
2023-03-29T21:03:44.788Z,-2.56
2023-03-29T21:06:29.560Z,-2.55
2023-03-29T21:09:14.293Z,-2.62
2023-03-29T21:11:59.240Z,-2.67
2023-03-29T21:14:44.122Z,-2.63
2023-03-29T21:17:29.268Z,-2.64
2023-03-29T21:20:14.924Z,-2.64
2023-03-29T21:23:00.400Z,-2.62
2023-03-29T21:25:45.694Z,-2.65
2023-03-29T21:28:30.296Z,-2.73
2023-03-29T21:31:15.378Z,-2.73
2023-03-29T21:34:00.373Z,-2.75
2023-03-29T21:36:45.247Z,-2.78
2023-03-29T21:39:30.154Z,-2.81
2023-03-29T21:42:14.860Z,-2.87
2023-03-29T21:45:01.161Z,-2.96
2023-03-29T21:47:45.998Z,-2.98
2023-03-29T21:50:33.361Z,-3.04
2023-03-29T21:53:19.147Z,-3.07
2023-03-29T21:56:04.393Z,-3.02
2023-03-29T21:58:49.106Z,-3.04
2023-03-29T22:01:33.813Z,-3.07
2023-03-29T22:04:33.120Z,-3.17
2023-03-29T22:07:25.847Z,-3.26
2023-03-29T22:10:11.976Z,-3.28
2023-03-29T22:12:56.759Z,-3.20
2023-03-29T22:15:42.102Z,-3.18
2023-03-29T22:18:29.451Z,-3.21
2023-03-29T22:21:29.845Z,-3.23
2023-03-29T22:24:15.674Z,-3.30
2023-03-29T22:27:00.397Z,-3.32
2023-03-29T22:29:45.465Z,-3.31
2023-03-29T22:32:31.338Z,-3.35
2023-03-29T22:35:16.225Z,-3.34
2023-03-29T22:38:01.187Z,-3.41
2023-03-29T22:40:46.574Z,-3.49
2023-03-29T22:43:31.556Z,-3.60
2023-03-29T22:46:16.324Z,-3.67
2023-03-29T22:49:01.266Z,-3.76
2023-03-29T22:51:46.184Z,-3.80
2023-03-29T22:54:31.286Z,-3.87
2023-03-29T22:57:16.020Z,-4.00
2023-03-29T23:00:01.247Z,-4.17
2023-03-29T23:02:45.934Z,-4.26
2023-03-29T23:05:30.542Z,-4.40
2023-03-29T23:08:15.812Z,-4.46
2023-03-29T23:11:02.833Z,-4.49
2023-03-29T23:13:48.088Z,-4.45
2023-03-29T23:16:33.184Z,-4.49
2023-03-29T23:19:17.998Z,-4.46
2023-03-29T23:22:02.961Z,-4.46
2023-03-29T23:24:48.054Z,-4.39
2023-03-29T23:27:32.734Z,-4.39
2023-03-29T23:30:21.106Z,-4.35
2023-03-29T23:33:06.317Z,-4.40
2023-03-29T23:35:51.497Z,-4.40
2023-03-29T23:38:38.229Z,-4.46
2023-03-29T23:41:27.795Z,-4.44
2023-03-29T23:44:12.192Z,-4.44
2023-03-29T23:46:58.288Z,-4.45
2023-03-29T23:49:44.672Z,-4.35
2023-03-29T23:52:34.464Z,-4.31
2023-03-29T23:55:19.678Z,-4.28
2023-03-29T23:58:04.180Z,-4.20
